Terminal Aerodrome Forecast
Issued by NWS

Current Version | Previous Version | Graphics & Text | Print | Product List | Glossary On
Versions: 1 2 3 4 5 6 7 8 9 10 11 12 13 14 15 16 17 18 19 20 21 22 23 24
000
FTUS41 KPBZ 151700
TAFHLG
TAF
KHLG 151720Z 1518/1618 14003KT 4SM BR OVC008
     FM152000 13005KT 5SM HZ BKN010
     FM160100 13005KT P6SM BKN200
     FM160900 15005KT 5SM -SHRA OVC020=

USA.gov is the U.S. government's official web portal to all federal, state and local government web resources and services.